sensor_id;sensor_type;location;lat;lon;timestamp;pressure;altitude;pressure_sealevel;temperature;humidity
78573;BME280;67862;0.000;0.000;2023-05-10T00:00:38;99371.56;;;20.78;56.04
78573;BME280;67862;0.000;0.000;2023-05-10T00:03:04;99373.19;;;20.79;56.24
78573;BME280;67862;0.000;0.000;2023-05-10T00:05:30;99369.66;;;20.78;56.06
78573;BME280;67862;0.000;0.000;2023-05-10T00:07:55;99365.00;;;20.79;56.24
78573;BME280;67862;0.000;0.000;2023-05-10T00:10:20;99369.66;;;20.78;55.99
78573;BME280;67862;0.000;0.000;2023-05-10T00:12:46;99357.63;;;20.79;56.46
78573;BME280;67862;0.000;0.000;2023-05-10T00:15:11;99364.19;;;20.78;55.93
78573;BME280;67862;0.000;0.000;2023-05-10T00:17:37;99368.84;;;20.78;56.36
78573;BME280;67862;0.000;0.000;2023-05-10T00:20:02;99367.75;;;20.79;56.19
78573;BME280;67862;0.000;0.000;2023-05-10T00:22:30;99361.19;;;20.80;56.11
78573;BME280;67862;0.000;0.000;2023-05-10T00:24:55;99366.94;;;20.78;56.26
78573;BME280;67862;0.000;0.000;2023-05-10T00:27:20;99361.47;;;20.78;56.42
78573;BME280;67862;0.000;0.000;2023-05-10T00:29:46;99349.47;;;20.79;56.59
78573;BME280;67862;0.000;0.000;2023-05-10T00:32:11;99351.06;;;20.85;56.15
78573;BME280;67862;0.000;0.000;2023-05-10T00:34:39;99350.78;;;20.87;56.47
78573;BME280;67862;0.000;0.000;2023-05-10T00:37:05;99350.50;;;20.83;56.52
78573;BME280;67862;0.000;0.000;2023-05-10T00:39:30;99347.25;;;20.81;56.61
78573;BME280;67862;0.000;0.000;2023-05-10T00:41:56;99350.28;;;20.80;56.19
78573;BME280;67862;0.000;0.000;2023-05-10T00:44:21;99353.00;;;20.80;56.35
78573;BME280;67862;0.000;0.000;2023-05-10T00:46:47;99350.56;;;20.78;56.61
78573;BME280;67862;0.000;0.000;2023-05-10T00:49:13;99354.09;;;20.79;56.33
78573;BME280;67862;0.000;0.000;2023-05-10T00:51:39;99352.47;;;20.78;56.85
78573;BME280;67862;0.000;0.000;2023-05-10T00:54:04;99345.09;;;20.78;56.62
78573;BME280;67862;0.000;0.000;2023-05-10T00:56:30;99343.47;;;20.77;56.55
78573;BME280;67862;0.000;0.000;2023-05-10T00:58:56;99350.56;;;20.78;56.62
78573;BME280;67862;0.000;0.000;2023-05-10T01:04:32;99345.38;;;20.77;56.79
78573;BME280;67862;0.000;0.000;2023-05-10T01:06:58;99339.13;;;20.76;56.92
78573;BME280;67862;0.000;0.000;2023-05-10T01:09:23;99344.56;;;20.76;56.54
78573;BME280;67862;0.000;0.000;2023-05-10T01:11:51;99347.31;;;20.76;56.98
78573;BME280;67862;0.000;0.000;2023-05-10T01:14:18;99338.31;;;20.76;56.73
78573;BME280;67862;0.000;0.000;2023-05-10T01:16:44;99345.38;;;20.77;56.93
78573;BME280;67862;0.000;0.000;2023-05-10T01:19:12;99339.38;;;20.75;56.71
78573;BME280;67862;0.000;0.000;2023-05-10T01:27:13;99340.22;;;20.75;56.63
78573;BME280;67862;0.000;0.000;2023-05-10T01:32:14;99341.28;;;20.74;56.67
78573;BME280;67862;0.000;0.000;2023-05-10T01:34:52;99336.66;;;20.75;56.67
78573;BME280;67862;0.000;0.000;2023-05-10T01:37:37;99338.31;;;20.76;56.74
78573;BME280;67862;0.000;0.000;2023-05-10T01:42:43;99334.75;;;20.75;57.03
78573;BME280;67862;0.000;0.000;2023-05-10T01:45:14;99332.03;;;20.75;56.97
78573;BME280;67862;0.000;0.000;2023-05-10T01:47:42;99332.03;;;20.75;57.07
78573;BME280;67862;0.000;0.000;2023-05-10T01:50:15;99323.84;;;20.75;57.08
78573;BME280;67862;0.000;0.000;2023-05-10T01:52:41;99320.28;;;20.75;57.16
78573;BME280;67862;0.000;0.000;2023-05-10T01:55:09;99330.13;;;20.76;57.09
78573;BME280;67862;0.000;0.000;2023-05-10T01:57:37;99317.56;;;20.75;57.29
78573;BME280;67862;0.000;0.000;2023-05-10T02:00:04;99319.47;;;20.74;57.31
78573;BME280;67862;0.000;0.000;2023-05-10T02:02:35;99326.56;;;20.75;57.25
78573;BME280;67862;0.000;0.000;2023-05-10T02:05:02;99321.13;;;20.75;57.23
78573;BME280;67862;0.000;0.000;2023-05-10T02:07:28;99323.84;;;20.75;57.01
78573;BME280;67862;0.000;0.000;2023-05-10T02:09:54;99320.28;;;20.75;57.37
78573;BME280;67862;0.000;0.000;2023-05-10T02:12:20;99310.47;;;20.74;57.20
78573;BME280;67862;0.000;0.000;2023-05-10T02:14:47;99307.75;;;20.74;57.11
78573;BME280;67862;0.000;0.000;2023-05-10T02:17:12;99308.56;;;20.74;57.52
78573;BME280;67862;0.000;0.000;2023-05-10T02:19:39;99300.38;;;20.74;57.24
78573;BME280;67862;0.000;0.000;2023-05-10T02:22:05;99307.75;;;20.74;57.31
78573;BME280;67862;0.000;0.000;2023-05-10T02:24:33;99305.00;;;20.74;57.14
78573;BME280;67862;0.000;0.000;2023-05-10T02:27:00;99300.38;;;20.74;57.35
78573;BME280;67862;0.000;0.000;2023-05-10T02:29:27;99302.28;;;20.74;57.46
78573;BME280;67862;0.000;0.000;2023-05-10T02:31:53;99300.38;;;20.74;57.33
78573;BME280;67862;0.000;0.000;2023-05-10T02:34:20;99310.47;;;20.74;57.31
78573;BME280;67862;0.000;0.000;2023-05-10T02:36:46;99304.19;;;20.73;57.62
78573;BME280;67862;0.000;0.000;2023-05-10T02:39:12;99305.00;;;20.74;57.57
78573;BME280;67862;0.000;0.000;2023-05-10T02:41:39;99308.56;;;20.74;57.76
78573;BME280;67862;0.000;0.000;2023-05-10T02:44:06;99314.81;;;20.75;57.44
78573;BME280;67862;0.000;0.000;2023-05-10T02:46:33;99311.56;;;20.73;57.35
78573;BME280;67862;0.000;0.000;2023-05-10T02:48:58;99306.09;;;20.73;57.36
78573;BME280;67862;0.000;0.000;2023-05-10T02:51:24;99309.66;;;20.73;57.42
78573;BME280;67862;0.000;0.000;2023-05-10T02:53:50;99309.94;;;20.72;57.85
78573;BME280;67862;0.000;0.000;2023-05-10T02:59:04;99317.03;;;20.73;57.43
78573;BME280;67862;0.000;0.000;2023-05-10T03:01:30;99309.94;;;20.72;57.45
78573;BME280;67862;0.000;0.000;2023-05-10T03:03:55;99314.59;;;20.71;57.33
78573;BME280;67862;0.000;0.000;2023-05-10T03:06:21;99317.03;;;20.73;57.62
78573;BME280;67862;0.000;0.000;2023-05-10T03:08:46;99318.94;;;20.72;57.51
78573;BME280;67862;0.000;0.000;2023-05-10T03:16:22;99320.03;;;20.71;57.76
78573;BME280;67862;0.000;0.000;2023-05-10T03:21:33;99310.22;;;20.70;57.40
78573;BME280;67862;0.000;0.000;2023-05-10T03:24:05;99311.03;;;20.71;57.53
78573;BME280;67862;0.000;0.000;2023-05-10T03:26:32;99314.06;;;20.69;57.63
78573;BME280;67862;0.000;0.000;2023-05-10T03:28:57;99318.41;;;20.70;57.60
78573;BME280;67862;0.000;0.000;2023-05-10T03:31:24;99312.13;;;20.70;57.66
78573;BME280;67862;0.000;0.000;2023-05-10T03:33:50;99322.25;;;20.69;57.74
78573;BME280;67862;0.000;0.000;2023-05-10T03:36:16;99311.31;;;20.69;57.92
78573;BME280;67862;0.000;0.000;2023-05-10T03:38:41;99316.78;;;20.69;57.65
78573;BME280;67862;0.000;0.000;2023-05-10T03:41:07;99306.97;;;20.68;57.74
78573;BME280;67862;0.000;0.000;2023-05-10T03:43:32;99307.50;;;20.70;57.76
78573;BME280;67862;0.000;0.000;2023-05-10T03:45:58;99307.78;;;20.69;57.66
78573;BME280;67862;0.000;0.000;2023-05-10T03:48:23;99306.69;;;20.70;57.66
78573;BME280;67862;0.000;0.000;2023-05-10T03:50:48;99305.06;;;20.69;57.77
78573;BME280;67862;0.000;0.000;2023-05-10T03:53:17;99305.88;;;20.69;57.75
78573;BME280;67862;0.000;0.000;2023-05-10T03:55:42;99311.31;;;20.69;57.95
78573;BME280;67862;0.000;0.000;2023-05-10T03:58:10;99302.63;;;20.67;57.54
78573;BME280;67862;0.000;0.000;2023-05-10T04:00:36;99308.88;;;20.68;57.87
78573;BME280;67862;0.000;0.000;2023-05-10T04:03:02;99314.34;;;20.68;57.94
78573;BME280;67862;0.000;0.000;2023-05-10T04:05:27;99310.81;;;20.67;57.75
78573;BME280;67862;0.000;0.000;2023-05-10T04:07:52;99315.69;;;20.65;57.79
78573;BME280;67862;0.000;0.000;2023-05-10T04:10:18;99311.91;;;20.66;58.04
78573;BME280;67862;0.000;0.000;2023-05-10T04:12:43;99311.84;;;20.76;59.24
78573;BME280;67862;0.000;0.000;2023-05-10T04:15:09;99314.50;;;20.81;57.72
78573;BME280;67862;0.000;0.000;2023-05-10T04:17:34;99315.41;;;20.72;57.89
78573;BME280;67862;0.000;0.000;2023-05-10T04:19:59;99311.63;;;20.68;57.73
78573;BME280;67862;0.000;0.000;2023-05-10T04:22:25;99315.97;;;20.69;58.02
78573;BME280;67862;0.000;0.000;2023-05-10T04:24:50;99315.16;;;20.68;57.92
78573;BME280;67862;0.000;0.000;2023-05-10T04:27:16;99316.25;;;20.67;57.96
78573;BME280;67862;0.000;0.000;2023-05-10T04:29:41;99320.09;;;20.66;57.82
78573;BME280;67862;0.000;0.000;2023-05-10T04:32:06;99314.63;;;20.66;57.92
78573;BME280;67862;0.000;0.000;2023-05-10T04:34:32;99314.63;;;20.66;57.66
78573;BME280;67862;0.000;0.000;2023-05-10T04:36:59;99312.72;;;20.67;57.75
78573;BME280;67862;0.000;0.000;2023-05-10T04:39:24;99320.34;;;20.65;58.01
78573;BME280;67862;0.000;0.000;2023-05-10T04:41:50;99316.53;;;20.66;57.88
78573;BME280;67862;0.000;0.000;2023-05-10T04:44:15;99315.69;;;20.65;58.04
78573;BME280;67862;0.000;0.000;2023-05-10T04:46:40;99320.34;;;20.65;58.08
78573;BME280;67862;0.000;0.000;2023-05-10T04:49:06;99314.88;;;20.65;57.96
78573;BME280;67862;0.000;0.000;2023-05-10T04:51:31;99319.53;;;20.64;57.88
78573;BME280;67862;0.000;0.000;2023-05-10T04:53:57;99320.34;;;20.65;57.98
78573;BME280;67862;0.000;0.000;2023-05-10T04:56:22;99311.34;;;20.64;57.65
78573;BME280;67862;0.000;0.000;2023-05-10T04:58:47;99314.06;;;20.64;57.61
78573;BME280;67862;0.000;0.000;2023-05-10T05:01:13;99314.06;;;20.64;57.78
78573;BME280;67862;0.000;0.000;2023-05-10T05:03:38;99308.56;;;20.74;58.24
78573;BME280;67862;0.000;0.000;2023-05-10T05:06:04;99318.34;;;20.80;58.11
78573;BME280;67862;0.000;0.000;2023-05-10T05:08:30;99314.56;;;20.76;57.88
78573;BME280;67862;0.000;0.000;2023-05-10T05:10:55;99316.22;;;20.72;57.97
78573;BME280;67862;0.000;0.000;2023-05-10T05:13:20;99305.88;;;20.69;57.48
78573;BME280;67862;0.000;0.000;2023-05-10T05:15:46;99308.88;;;20.68;55.98
78573;BME280;67862;0.000;0.000;2023-05-10T05:18:11;99308.63;;;20.64;55.61
78573;BME280;67862;0.000;0.000;2023-05-10T05:20:37;99314.34;;;20.63;55.07
78573;BME280;67862;0.000;0.000;2023-05-10T05:23:02;99315.69;;;20.65;55.89
78573;BME280;67862;0.000;0.000;2023-05-10T05:25:27;99320.09;;;20.66;54.87
78573;BME280;67862;0.000;0.000;2023-05-10T05:27:53;99321.72;;;20.62;55.23
78573;BME280;67862;0.000;0.000;2023-05-10T05:30:19;99331.38;;;20.44;55.70
78573;BME280;67862;0.000;0.000;2023-05-10T05:32:44;99327.34;;;20.21;56.05
78573;BME280;67862;0.000;0.000;2023-05-10T05:35:09;99329.28;;;20.16;55.83
78573;BME280;67862;0.000;0.000;2023-05-10T05:37:35;99332.81;;;20.21;56.17
78573;BME280;67862;0.000;0.000;2023-05-10T05:40:01;99342.13;;;20.10;55.24
78573;BME280;67862;0.000;0.000;2023-05-10T05:42:26;99336.41;;;19.96;55.43
78573;BME280;67862;0.000;0.000;2023-05-10T05:44:52;99341.03;;;20.06;55.99
78573;BME280;67862;0.000;0.000;2023-05-10T05:47:17;99338.81;;;20.18;53.52
78573;BME280;67862;0.000;0.000;2023-05-10T05:49:42;99349.28;;;19.35;54.83
78573;BME280;67862;0.000;0.000;2023-05-10T05:52:10;99352.81;;;19.15;53.33
78573;BME280;67862;0.000;0.000;2023-05-10T05:54:36;99354.44;;;18.96;53.69
78573;BME280;67862;0.000;0.000;2023-05-10T05:57:01;99359.81;;;18.80;53.52
78573;BME280;67862;0.000;0.000;2023-05-10T05:59:27;99361.75;;;18.90;52.81
78573;BME280;67862;0.000;0.000;2023-05-10T06:01:52;99355.19;;;18.66;53.23
78573;BME280;67862;0.000;0.000;2023-05-10T06:04:18;99358.19;;;18.79;52.78
78573;BME280;67862;0.000;0.000;2023-05-10T06:06:43;99353.84;;;18.73;52.53
78573;BME280;67862;0.000;0.000;2023-05-10T06:09:08;99359.56;;;18.77;52.43
78573;BME280;67862;0.000;0.000;2023-05-10T06:11:34;99357.91;;;18.71;51.72
78573;BME280;67862;0.000;0.000;2023-05-10T06:14:00;99359.88;;;18.96;51.50
78573;BME280;67862;0.000;0.000;2023-05-10T06:16:26;99364.44;;;18.80;51.41
78573;BME280;67862;0.000;0.000;2023-05-10T06:18:52;99359.19;;;18.53;51.07
78573;BME280;67862;0.000;0.000;2023-05-10T06:21:17;99362.69;;;18.43;51.80
78573;BME280;67862;0.000;0.000;2023-05-10T06:23:42;99365.00;;;18.77;51.85
78573;BME280;67862;0.000;0.000;2023-05-10T06:26:08;99364.50;;;19.00;51.10
78573;BME280;67862;0.000;0.000;2023-05-10T06:28:34;99365.56;;;18.84;51.44
78573;BME280;67862;0.000;0.000;2023-05-10T06:31:00;99372.66;;;19.00;50.78
78573;BME280;67862;0.000;0.000;2023-05-10T06:33:25;99371.53;;;18.76;50.65
78573;BME280;67862;0.000;0.000;2023-05-10T06:35:51;99371.59;;;19.06;50.91
78573;BME280;67862;0.000;0.000;2023-05-10T06:38:16;99377.84;;;19.07;50.36
78573;BME280;67862;0.000;0.000;2023-05-10T06:40:41;99374.59;;;19.15;50.29
78573;BME280;67862;0.000;0.000;2023-05-10T06:43:07;99375.94;;;19.02;50.26
78573;BME280;67862;0.000;0.000;2023-05-10T06:45:32;99379.44;;;18.82;49.87
78573;BME280;67862;0.000;0.000;2023-05-10T06:47:58;99374.47;;;18.64;50.00
78573;BME280;67862;0.000;0.000;2023-05-10T06:50:23;99376.47;;;18.94;50.12
78573;BME280;67862;0.000;0.000;2023-05-10T06:52:48;99374.03;;;19.08;49.68
78573;BME280;67862;0.000;0.000;2023-05-10T06:55:14;99375.13;;;19.12;49.70
78573;BME280;67862;0.000;0.000;2023-05-10T06:57:39;99372.69;;;19.15;49.21
78573;BME280;67862;0.000;0.000;2023-05-10T07:00:04;99370.50;;;19.12;49.13
78573;BME280;67862;0.000;0.000;2023-05-10T07:02:30;99381.69;;;19.21;49.00
78573;BME280;67862;0.000;0.000;2023-05-10T07:04:55;99378.16;;;19.21;49.52
78573;BME280;67862;0.000;0.000;2023-05-10T07:07:21;99383.59;;;19.21;49.49
78573;BME280;67862;0.000;0.000;2023-05-10T07:09:46;99374.31;;;19.06;48.88
78573;BME280;67862;0.000;0.000;2023-05-10T07:12:12;99379.22;;;19.14;49.59
78573;BME280;67862;0.000;0.000;2023-05-10T07:14:37;99380.28;;;19.19;48.92
78573;BME280;67862;0.000;0.000;2023-05-10T07:17:03;99384.66;;;19.25;49.17
78573;BME280;67862;0.000;0.000;2023-05-10T07:19:28;99379.78;;;19.22;49.13
78573;BME280;67862;0.000;0.000;2023-05-10T07:21:54;99373.19;;;18.87;49.32
78573;BME280;67862;0.000;0.000;2023-05-10T07:24:20;99374.31;;;19.16;49.11
78573;BME280;67862;0.000;0.000;2023-05-10T07:26:45;99376.44;;;18.89;49.09
78573;BME280;67862;0.000;0.000;2023-05-10T07:29:11;99375.34;;;18.90;48.83
78573;BME280;67862;0.000;0.000;2023-05-10T07:31:36;99361.78;;;19.05;48.94
78573;BME280;67862;0.000;0.000;2023-05-10T07:34:02;99371.31;;;19.13;49.13
78573;BME280;67862;0.000;0.000;2023-05-10T07:36:27;99367.78;;;19.12;49.04
78573;BME280;67862;0.000;0.000;2023-05-10T07:38:53;99361.25;;;19.08;49.07
78573;BME280;67862;0.000;0.000;2023-05-10T07:41:18;99365.28;;;18.91;49.27
78573;BME280;67862;0.000;0.000;2023-05-10T07:43:44;99369.38;;;18.83;49.13
78573;BME280;67862;0.000;0.000;2023-05-10T07:46:09;99359.06;;;18.95;48.84
78573;BME280;67862;0.000;0.000;2023-05-10T07:48:36;99360.97;;;19.10;48.50
78573;BME280;67862;0.000;0.000;2023-05-10T07:51:02;99360.69;;;19.06;48.70
78573;BME280;67862;0.000;0.000;2023-05-10T07:53:27;99360.44;;;19.03;48.60
78573;BME280;67862;0.000;0.000;2023-05-10T07:58:38;99365.59;;;19.20;48.14
78573;BME280;67862;0.000;0.000;2023-05-10T08:01:03;99366.69;;;19.13;48.35
78573;BME280;67862;0.000;0.000;2023-05-10T08:03:29;99356.91;;;19.28;48.57
78573;BME280;67862;0.000;0.000;2023-05-10T08:05:54;99354.47;;;19.41;48.54
78573;BME280;67862;0.000;0.000;2023-05-10T08:08:19;99370.53;;;19.53;48.30
78573;BME280;67862;0.000;0.000;2023-05-10T08:10:46;99362.94;;;19.60;48.43
78573;BME280;67862;0.000;0.000;2023-05-10T08:13:11;99356.66;;;19.65;48.36
78573;BME280;67862;0.000;0.000;2023-05-10T08:15:37;99358.28;;;19.66;47.09
78573;BME280;67862;0.000;0.000;2023-05-10T08:18:02;99364.53;;;19.66;48.04
78573;BME280;67862;0.000;0.000;2023-05-10T08:20:27;99362.91;;;19.70;48.24
78573;BME280;67862;0.000;0.000;2023-05-10T08:22:53;99365.38;;;19.72;48.50
78573;BME280;67862;0.000;0.000;2023-05-10T08:25:18;99360.97;;;19.76;48.60
78573;BME280;67862;0.000;0.000;2023-05-10T08:27:43;99366.97;;;19.78;48.36
78573;BME280;67862;0.000;0.000;2023-05-10T08:30:09;99364.00;;;19.80;48.62
78573;BME280;67862;0.000;0.000;2023-05-10T08:32:34;99358.25;;;19.81;48.79
78573;BME280;67862;0.000;0.000;2023-05-10T08:35:00;99360.19;;;19.81;48.61
78573;BME280;67862;0.000;0.000;2023-05-10T08:37:25;99355.25;;;19.83;48.92
78573;BME280;67862;0.000;0.000;2023-05-10T08:39:51;99367.78;;;19.84;48.67
78573;BME280;67862;0.000;0.000;2023-05-10T08:42:19;99354.97;;;19.84;49.13
78573;BME280;67862;0.000;0.000;2023-05-10T08:44:45;99361.25;;;19.85;48.81
78573;BME280;67862;0.000;0.000;2023-05-10T08:47:12;99352.78;;;19.86;49.05
78573;BME280;67862;0.000;0.000;2023-05-10T08:49:38;99358.25;;;19.86;49.08
78573;BME280;67862;0.000;0.000;2023-05-10T08:52:04;99348.16;;;19.87;49.04
78573;BME280;67862;0.000;0.000;2023-05-10T08:54:31;99351.44;;;19.89;49.17
78573;BME280;67862;0.000;0.000;2023-05-10T08:56:57;99349.78;;;19.88;49.26
78573;BME280;67862;0.000;0.000;2023-05-10T08:59:23;99343.53;;;19.87;49.08
78573;BME280;67862;0.000;0.000;2023-05-10T09:01:48;99347.34;;;19.86;49.34
78573;BME280;67862;0.000;0.000;2023-05-10T09:04:15;99352.25;;;19.89;49.28
78573;BME280;67862;0.000;0.000;2023-05-10T09:06:40;99344.34;;;19.88;49.04
78573;BME280;67862;0.000;0.000;2023-05-10T09:09:06;99354.97;;;19.89;49.05
78573;BME280;67862;0.000;0.000;2023-05-10T09:11:31;99349.25;;;19.91;48.76
78573;BME280;67862;0.000;0.000;2023-05-10T09:13:57;99351.97;;;19.91;48.86
78573;BME280;67862;0.000;0.000;2023-05-10T09:16:23;99349.25;;;19.91;49.29
78573;BME280;67862;0.000;0.000;2023-05-10T09:18:49;99347.06;;;19.93;49.17
78573;BME280;67862;0.000;0.000;2023-05-10T09:21:14;99357.69;;;19.94;49.30
78573;BME280;67862;0.000;0.000;2023-05-10T09:23:43;99354.69;;;19.96;48.70
78573;BME280;67862;0.000;0.000;2023-05-10T09:26:09;99353.03;;;19.95;49.51
78573;BME280;67862;0.000;0.000;2023-05-10T09:28:34;99356.59;;;19.95;49.37
78573;BME280;67862;0.000;0.000;2023-05-10T09:31:14;99345.69;;;19.95;49.21
78573;BME280;67862;0.000;0.000;2023-05-10T09:33:43;99346.50;;;19.96;49.01
78573;BME280;67862;0.000;0.000;2023-05-10T09:36:09;99342.69;;;19.97;49.34
78573;BME280;67862;0.000;0.000;2023-05-10T09:38:44;99339.41;;;19.95;49.28
78573;BME280;67862;0.000;0.000;2023-05-10T09:41:15;99342.44;;;19.98;49.44
78573;BME280;67862;0.000;0.000;2023-05-10T09:43:40;99333.44;;;19.98;49.09
78573;BME280;67862;0.000;0.000;2023-05-10T09:46:08;99337.22;;;19.97;49.29
78573;BME280;67862;0.000;0.000;2023-05-10T09:48:33;99344.34;;;19.98;49.26
78573;BME280;67862;0.000;0.000;2023-05-10T09:50:59;99330.72;;;19.98;49.03
78573;BME280;67862;0.000;0.000;2023-05-10T09:53:24;99326.09;;;19.98;48.81
78573;BME280;67862;0.000;0.000;2023-05-10T09:55:49;99321.44;;;19.99;49.09
78573;BME280;67862;0.000;0.000;2023-05-10T09:58:16;99315.72;;;20.00;48.91
78573;BME280;67862;0.000;0.000;2023-05-10T10:00:44;99324.69;;;20.01;49.20
78573;BME280;67862;0.000;0.000;2023-05-10T10:03:16;99323.06;;;20.00;49.08
78573;BME280;67862;0.000;0.000;2023-05-10T10:05:42;99321.97;;;20.01;48.88
78573;BME280;67862;0.000;0.000;2023-05-10T10:08:08;99318.16;;;20.02;49.14
78573;BME280;67862;0.000;0.000;2023-05-10T10:10:34;99309.44;;;20.00;49.12
78573;BME280;67862;0.000;0.000;2023-05-10T10:13:00;99311.09;;;20.01;48.91
78573;BME280;67862;0.000;0.000;2023-05-10T10:15:25;99302.91;;;20.01;49.13
78573;BME280;67862;0.000;0.000;2023-05-10T10:17:51;99303.72;;;20.01;48.69
78573;BME280;67862;0.000;0.000;2023-05-10T10:20:17;99301.81;;;20.02;48.76
78573;BME280;67862;0.000;0.000;2023-05-10T10:22:43;99298.00;;;20.03;48.92
78573;BME280;67862;0.000;0.000;2023-05-10T10:25:10;99299.91;;;20.02;49.03
78573;BME280;67862;0.000;0.000;2023-05-10T10:30:07;99306.97;;;20.04;48.94
78573;BME280;67862;0.000;0.000;2023-05-10T10:35:19;99296.59;;;20.06;48.78
78573;BME280;67862;0.000;0.000;2023-05-10T10:37:45;99297.41;;;20.06;48.94
78573;BME280;67862;0.000;0.000;2023-05-10T10:40:24;99294.69;;;20.06;48.96
78573;BME280;67862;0.000;0.000;2023-05-10T10:42:51;99289.53;;;20.10;48.58
78573;BME280;67862;0.000;0.000;2023-05-10T10:45:16;99285.97;;;20.09;48.64
78573;BME280;67862;0.000;0.000;2023-05-10T10:47:42;99287.31;;;20.12;49.05
78573;BME280;67862;0.000;0.000;2023-05-10T10:50:08;99282.16;;;20.10;49.25
78573;BME280;67862;0.000;0.000;2023-05-10T10:52:37;99277.53;;;20.11;49.26
78573;BME280;67862;0.000;0.000;2023-05-10T10:55:13;99274.28;;;20.09;49.01
78573;BME280;67862;0.000;0.000;2023-05-10T11:02:56;99274.00;;;20.10;49.15
78573;BME280;67862;0.000;0.000;2023-05-10T11:05:35;99266.63;;;20.11;49.29
78573;BME280;67862;0.000;0.000;2023-05-10T11:08:06;99260.34;;;20.10;48.84
78573;BME280;67862;0.000;0.000;2023-05-10T11:10:31;99253.00;;;20.11;49.36
78573;BME280;67862;0.000;0.000;2023-05-10T11:15:29;99252.72;;;20.12;49.38
78573;BME280;67862;0.000;0.000;2023-05-10T11:17:55;99247.25;;;20.12;49.66
78573;BME280;67862;0.000;0.000;2023-05-10T11:20:20;99243.44;;;20.13;49.17
78573;BME280;67862;0.000;0.000;2023-05-10T11:22:53;99255.69;;;20.16;49.62
78573;BME280;67862;0.000;0.000;2023-05-10T11:25:18;99242.63;;;20.13;49.75
78573;BME280;67862;0.000;0.000;2023-05-10T11:27:44;99238.50;;;20.15;49.33
78573;BME280;67862;0.000;0.000;2023-05-10T11:30:10;99239.63;;;20.14;49.39
78573;BME280;67862;0.000;0.000;2023-05-10T11:32:39;99245.88;;;20.15;49.46
78573;BME280;67862;0.000;0.000;2023-05-10T11:35:08;99243.16;;;20.15;49.53
78573;BME280;67862;0.000;0.000;2023-05-10T11:37:33;99246.41;;;20.17;50.01
78573;BME280;67862;0.000;0.000;2023-05-10T11:39:59;99254.59;;;20.17;49.87
78573;BME280;67862;0.000;0.000;2023-05-10T11:42:24;99246.16;;;20.18;49.99
78573;BME280;67862;0.000;0.000;2023-05-10T11:44:50;99240.41;;;20.20;49.79
78573;BME280;67862;0.000;0.000;2023-05-10T11:47:15;99254.84;;;20.20;49.98
78573;BME280;67862;0.000;0.000;2023-05-10T11:49:44;99242.31;;;20.19;50.33
78573;BME280;67862;0.000;0.000;2023-05-10T11:52:10;99251.31;;;20.20;50.14
78573;BME280;67862;0.000;0.000;2023-05-10T11:54:36;99253.22;;;20.19;50.00
78573;BME280;67862;0.000;0.000;2023-05-10T11:57:01;99245.59;;;20.21;50.11
78573;BME280;67862;0.000;0.000;2023-05-10T11:59:27;99240.13;;;20.21;50.19
78573;BME280;67862;0.000;0.000;2023-05-10T12:01:52;99237.94;;;20.23;50.10
78573;BME280;67862;0.000;0.000;2023-05-10T12:04:18;99250.47;;;20.24;49.98
78573;BME280;67862;0.000;0.000;2023-05-10T12:06:43;99247.75;;;20.24;50.25
78573;BME280;67862;0.000;0.000;2023-05-10T12:09:10;99244.19;;;20.24;50.25
78573;BME280;67862;0.000;0.000;2023-05-10T12:11:39;99250.47;;;20.24;49.87
78573;BME280;67862;0.000;0.000;2023-05-10T12:14:05;99254.28;;;20.23;50.31
78573;BME280;67862;0.000;0.000;2023-05-10T12:16:30;99244.78;;;20.21;50.39
78573;BME280;67862;0.000;0.000;2023-05-10T12:18:57;99242.03;;;20.21;50.46
78573;BME280;67862;0.000;0.000;2023-05-10T12:21:23;99245.59;;;20.21;50.50
78573;BME280;67862;0.000;0.000;2023-05-10T12:23:52;99239.31;;;20.21;50.30
78573;BME280;67862;0.000;0.000;2023-05-10T12:26:18;99240.94;;;20.22;50.53
78573;BME280;67862;0.000;0.000;2023-05-10T12:28:43;99245.59;;;20.21;50.54
78573;BME280;67862;0.000;0.000;2023-05-10T12:31:09;99234.69;;;20.21;50.50
78573;BME280;67862;0.000;0.000;2023-05-10T12:33:38;99227.84;;;20.24;50.36
78573;BME280;67862;0.000;0.000;2023-05-10T12:36:04;99234.09;;;20.24;50.56
78573;BME280;67862;0.000;0.000;2023-05-10T12:38:34;99231.91;;;20.26;50.20
78573;BME280;67862;0.000;0.000;2023-05-10T12:41:10;99227.31;;;20.27;50.32
78573;BME280;67862;0.000;0.000;2023-05-10T12:43:35;99228.63;;;20.29;50.29
78573;BME280;67862;0.000;0.000;2023-05-10T12:46:07;99219.88;;;20.33;50.33
78573;BME280;67862;0.000;0.000;2023-05-10T12:48:33;99216.88;;;20.34;50.61
78573;BME280;67862;0.000;0.000;2023-05-10T12:50:59;99211.72;;;20.33;50.55
78573;BME280;67862;0.000;0.000;2023-05-10T12:53:25;99213.09;;;20.30;50.88
78573;BME280;67862;0.000;0.000;2023-05-10T12:55:50;99206.03;;;20.29;50.52
78573;BME280;67862;0.000;0.000;2023-05-10T12:58:16;99209.56;;;20.29;50.78
78573;BME280;67862;0.000;0.000;2023-05-10T13:00:41;99207.66;;;20.30;50.74
78573;BME280;67862;0.000;0.000;2023-05-10T13:03:06;99200.28;;;20.30;50.58
78573;BME280;67862;0.000;0.000;2023-05-10T13:05:32;99192.09;;;20.30;50.54
78573;BME280;67862;0.000;0.000;2023-05-10T13:07:58;99189.38;;;20.30;50.65
78573;BME280;67862;0.000;0.000;2023-05-10T13:10:23;99197.25;;;20.32;50.50
78573;BME280;67862;0.000;0.000;2023-05-10T13:12:50;99200.81;;;20.33;50.79
78573;BME280;67862;0.000;0.000;2023-05-10T13:15:15;99196.47;;;20.32;50.76
78573;BME280;67862;0.000;0.000;2023-05-10T13:17:40;99190.44;;;20.35;50.83
78573;BME280;67862;0.000;0.000;2023-05-10T13:20:07;99181.16;;;20.36;50.43
78573;BME280;67862;0.000;0.000;2023-05-10T13:22:33;99177.91;;;20.34;50.67
78573;BME280;67862;0.000;0.000;2023-05-10T13:24:58;99174.66;;;20.32;50.73
78573;BME280;67862;0.000;0.000;2023-05-10T13:27:23;99182.81;;;20.32;50.76
78573;BME280;67862;0.000;0.000;2023-05-10T13:29:49;99168.09;;;20.33;50.76
78573;BME280;67862;0.000;0.000;2023-05-10T13:32:14;99163.75;;;20.32;50.58
78573;BME280;67862;0.000;0.000;2023-05-10T13:34:39;99161.00;;;20.32;50.62
78573;BME280;67862;0.000;0.000;2023-05-10T13:37:05;99156.63;;;20.36;50.49
78573;BME280;67862;0.000;0.000;2023-05-10T13:39:30;99162.03;;;20.41;50.52
78573;BME280;67862;0.000;0.000;2023-05-10T13:41:58;99148.13;;;20.42;50.57
78573;BME280;67862;0.000;0.000;2023-05-10T13:44:23;99151.41;;;20.44;50.42